Time;durP1;ratioP1;P1;durP2;ratioP2;P2;SDS_P1;SDS_P2;PMS_P1;PMS_P2;Temp;Humidity;BMP_temperature;BMP_pressure;BME280_temperature;BME280_humidity;BME280_pressure;Samples;Min_cycle;Max_cycle;Signal;HPM_P1;HPM_P2
2023/03/30 10:52:59;;;;;;;5.80;1.95;;;;;;;12.30;78.49;96189.09;2084726;28;20565;-62
2023/03/30 10:54:23;;;;;;;4.22;2.28;;;;;;;12.35;77.04;96188.81;2077779;28;20556;-62
2023/03/30 10:56:01;;;;;;;6.53;2.67;;;;;;;12.53;77.73;96205.22;2074376;28;20251;-62
2023/03/30 10:57:11;;;;;;;12.80;2.30;;;;;;;12.70;77.36;96219.94;2060744;28;20969;-62
2023/03/30 10:58:38;;;;;;;4.88;1.90;;;;;;;12.64;77.22;96200.19;2063335;28;20261;-62
2023/03/30 10:59:55;;;;;;;10.07;2.42;;;;;;;12.86;78.20;96206.75;2023683;29;20214;-62
2023/03/30 11:01:10;;;;;;;6.75;2.42;;;;;;;13.11;77.21;96213.94;2061136;28;20313;-63
2023/03/30 11:02:24;;;;;;;5.68;2.05;;;;;;;13.19;76.05;96213.47;2057925;28;20194;-62
2023/03/30 11:03:30;;;;;;;8.50;2.45;;;;;;;12.95;76.18;96214.06;2057674;28;20202;-63
2023/03/30 11:04:42;;;;;;;4.60;1.70;;;;;;;12.70;77.03;96218.16;2055983;28;20222;-62
2023/03/30 11:05:47;;;;;;;11.18;1.90;;;;;;;12.56;77.35;96221.59;2057015;28;20382;-62
2023/03/30 11:06:52;;;;;;;7.65;2.35;;;;;;;12.52;78.07;96232.31;2059332;28;20222;-62
2023/03/30 11:07:59;;;;;;;4.97;1.77;;;;;;;12.46;78.67;96217.00;2059859;28;20228;-62
2023/03/30 11:09:05;;;;;;;7.93;2.05;;;;;;;12.50;79.64;96229.81;2061319;28;21209;-62
2023/03/30 11:10:17;;;;;;;7.63;2.10;;;;;;;12.49;79.37;96241.22;2059529;28;20229;-62
2023/03/30 11:11:31;;;;;;;4.68;1.73;;;;;;;12.41;79.11;96228.56;2058593;28;20222;-62
2023/03/30 11:12:41;;;;;;;11.35;2.28;;;;;;;12.44;79.83;96231.94;2061991;28;20314;-63
2023/03/30 11:13:52;;;;;;;9.77;2.67;;;;;;;12.53;79.58;96229.66;2062266;28;20209;-62
2023/03/30 11:15:14;;;;;;;4.13;1.92;;;;;;;12.64;79.61;96238.63;2063993;28;20237;-62
2023/03/30 11:16:31;;;;;;;3.65;1.65;;;;;;;12.54;78.33;96236.56;2055319;28;20227;-62
2023/03/30 11:17:49;;;;;;;4.65;1.90;;;;;;;12.59;79.84;96236.28;2056827;28;20203;-65
2023/03/30 11:19:05;;;;;;;6.53;1.58;;;;;;;12.55;79.86;96233.00;2056153;28;20210;-65
2023/03/30 11:20:27;;;;;;;3.53;1.73;;;;;;;12.50;79.73;96229.81;2059325;28;20203;-65
2023/03/30 11:21:39;;;;;;;7.60;2.40;;;;;;;12.43;79.59;96231.13;2062220;28;20368;-61
2023/03/30 11:22:50;;;;;;;7.03;2.45;;;;;;;12.47;80.53;96232.63;2062414;28;20205;-61
2023/03/30 11:23:58;;;;;;;3.80;2.00;;;;;;;12.54;80.77;96223.47;2060666;28;20210;-61
2023/03/30 11:25:08;;;;;;;6.10;1.75;;;;;;;12.53;80.45;96237.50;2059171;28;20205;-61
2023/03/30 11:26:12;;;;;;;6.70;1.73;;;;;;;12.56;79.99;96236.47;2058458;28;20392;-61
2023/03/30 11:27:28;;;;;;;6.72;2.22;;;;;;;12.63;79.38;96234.31;2057906;28;20209;-61
2023/03/30 11:28:47;;;;;;;4.85;1.92;;;;;;;12.46;79.98;96233.56;2056007;28;20210;-61
2023/03/30 11:30:01;;;;;;;4.28;1.40;;;;;;;12.46;79.88;96244.03;2056708;28;20210;-61
2023/03/30 11:31:13;;;;;;;6.25;1.52;;;;;;;12.44;80.84;96240.63;2055281;28;20226;-61
2023/03/30 11:32:46;;;;;;;17.38;2.65;;;;;;;12.48;81.19;96243.94;2066615;28;20236;-61
2023/03/30 11:33:59;;;;;;;4.93;1.80;;;;;;;12.53;81.20;96247.97;2068039;28;20194;-61
2023/03/30 11:35:36;;;;;;;6.15;2.35;;;;;;;12.42;79.77;96247.75;2068426;28;20228;-61
2023/03/30 11:36:53;;;;;;;5.40;1.90;;;;;;;12.35;80.17;96242.00;2067502;28;20222;-61
2023/03/30 11:38:16;;;;;;;10.85;2.90;;;;;;;12.31;81.16;96235.28;2072081;28;20208;-61
2023/03/30 11:39:25;;;;;;;10.27;2.25;;;;;;;12.37;80.81;96248.03;2069339;28;20721;-61
2023/03/30 11:40:45;;;;;;;8.50;2.40;;;;;;;12.62;80.97;96241.34;2068721;28;21210;-61
2023/03/30 11:41:57;;;;;;;8.77;2.42;;;;;;;12.88;79.73;96247.63;2064895;28;20229;-61
2023/03/30 11:43:00;;;;;;;7.03;1.83;;;;;;;12.96;78.92;96238.47;2065984;28;20203;-61
2023/03/30 11:44:01;;;;;;;12.23;5.68;;;;;;;13.01;78.74;96229.38;2065385;28;20209;-63
2023/03/30 11:45:35;;;;;;;8.52;3.03;;;;;;;13.28;77.83;96239.13;2067696;28;20221;-62
2023/03/30 11:47:04;;;;;;;17.30;6.85;;;;;;;13.62;77.77;96223.91;2068843;28;20217;-63
2023/03/30 11:48:11;;;;;;;11.98;2.47;;;;;;;13.80;76.57;96237.66;2067433;28;20210;-63
2023/03/30 11:49:15;;;;;;;6.15;2.42;;;;;;;13.91;76.51;96242.19;2066102;28;20623;-62
2023/03/30 11:50:24;;;;;;;7.15;2.10;;;;;;;13.95;76.75;96243.69;2068502;28;20214;-61
2023/03/30 11:51:42;;;;;;;9.07;2.25;;;;;;;13.98;76.58;96245.25;2072709;28;20198;-61
2023/03/30 11:52:57;;;;;;;6.93;2.35;;;;;;;13.63;75.80;96249.22;2072388;28;20206;-62
2023/03/30 11:54:22;;;;;;;4.15;2.08;;;;;;;13.36;76.25;96260.47;2067588;28;20767;-61
2023/03/30 11:55:49;;;;;;;2.67;1.75;;;;;;;13.29;77.23;96256.53;2065338;28;20198;-61
2023/03/30 11:57:00;;;;;;;6.05;2.08;;;;;;;13.34;77.49;96251.00;2066788;28;20193;-61
2023/03/30 11:58:12;;;;;;;10.55;2.47;;;;;;;13.15;76.77;96241.66;2067994;28;20202;-62
2023/03/30 11:59:42;;;;;;;9.88;2.00;;;;;;;13.33;77.41;96250.19;2069038;28;20197;-61
2023/03/30 12:01:00;;;;;;;7.00;2.00;;;;;;;13.48;75.93;96247.56;2066822;28;20218;-61
2023/03/30 12:02:42;;;;;;;6.07;1.77;;;;;;;13.44;76.59;96246.91;2069410;28;20223;-61
2023/03/30 12:03:49;;;;;;;6.30;2.08;;;;;;;13.45;76.31;96243.34;2059170;28;20349;-65
2023/03/30 12:04:58;;;;;;;8.75;2.35;;;;;;;13.56;77.03;96253.19;2061865;28;20742;-63
2023/03/30 12:06:09;;;;;;;8.43;2.85;;;;;;;13.60;75.73;96238.06;2062639;28;20217;-63
2023/03/30 12:07:39;;;;;;;10.00;2.10;;;;;;;13.43;75.84;96239.97;2061598;28;20221;-64
2023/03/30 12:09:18;;;;;;;5.43;2.22;;;;;;;13.35;75.61;96243.03;2055997;28;20662;-64
2023/03/30 12:10:35;;;;;;;5.70;1.95;;;;;;;13.56;76.25;96232.19;2062702;28;20216;-60
2023/03/30 12:12:00;;;;;;;12.98;2.38;;;;;;;13.80;75.92;96242.91;2062735;28;20203;-60
2023/03/30 12:13:02;;;;;;;6.68;1.95;;;;;;;14.51;73.60;96245.31;2067131;28;20563;-59
2023/03/30 12:14:20;;;;;;;10.15;2.53;;;;;;;15.19;70.93;96219.72;2064200;28;20204;-60
2023/03/30 12:15:37;;;;;;;6.60;2.08;;;;;;;15.23;69.54;96230.84;2059911;28;20230;-60
2023/03/30 12:16:46;;;;;;;5.03;1.63;;;;;;;15.38;69.21;96234.22;2072398;28;20751;-60
2023/03/30 12:18:03;;;;;;;4.63;2.05;;;;;;;15.13;68.54;96226.22;2062302;28;20186;-64
2023/03/30 12:19:13;;;;;;;6.43;1.90;;;;;;;15.67;66.67;96208.44;2063708;28;20209;-64
2023/03/30 12:20:46;;;;;;;8.75;2.30;;;;;;;15.59;66.90;96223.94;2060633;28;20306;-64
2023/03/30 12:21:57;;;;;;;6.97;2.25;;;;;;;15.74;66.49;96214.09;2059419;28;20192;-64
2023/03/30 12:23:20;;;;;;;6.20;2.10;;;;;;;15.95;65.67;96211.75;2059223;28;20286;-64
2023/03/30 12:24:42;;;;;;;6.60;2.00;;;;;;;15.87;65.93;96208.81;2060248;28;20206;-63
2023/03/30 12:25:54;;;;;;;11.30;2.38;;;;;;;15.95;66.58;96214.38;2063166;28;20709;-65
2023/03/30 12:26:55;;;;;;;7.20;2.00;;;;;;;15.12;67.49;96206.16;2060505;28;20293;-65
2023/03/30 12:28:12;;;;;;;6.03;2.25;;;;;;;14.84;67.46;96196.69;2065534;28;20202;-65
2023/03/30 12:29:16;;;;;;;7.95;2.10;;;;;;;14.86;67.73;96200.06;2067330;28;20199;-65
2023/03/30 12:30:29;;;;;;;10.10;2.42;;;;;;;14.60;67.44;96200.03;2064436;28;20198;-65
2023/03/30 12:31:47;;;;;;;7.72;1.92;;;;;;;14.42;69.68;96207.34;2065041;28;20609;-66
2023/03/30 12:33:02;;;;;;;9.68;2.45;;;;;;;14.46;70.10;96197.50;2064002;28;20802;-65
2023/03/30 12:34:07;;;;;;;9.68;1.90;;;;;;;14.51;68.71;96195.41;2061573;28;20209;-65
2023/03/30 12:35:46;;;;;;;7.45;2.33;;;;;;;14.84;65.34;96208.06;2059994;28;20198;-66
2023/03/30 12:37:11;;;;;;;4.57;1.75;;;;;;;14.56;66.86;96177.53;2062460;28;20694;-65
2023/03/30 12:38:16;;;;;;;8.35;2.35;;;;;;;14.59;66.21;96194.88;2069386;28;20297;-65
2023/03/30 12:39:29;;;;;;;12.70;2.13;;;;;;;14.81;65.80;96197.75;2069518;28;20249;-65
2023/03/30 12:40:31;;;;;;;8.00;2.15;;;;;;;14.65;66.74;96179.59;2061961;28;20198;-65
2023/03/30 12:41:47;;;;;;;5.30;1.80;;;;;;;14.98;64.98;96183.47;2063629;28;20195;-65
2023/03/30 12:43:04;;;;;;;6.72;1.98;;;;;;;15.25;64.49;96182.47;2063089;28;20709;-67
2023/03/30 12:44:54;;;;;;;5.18;1.73;;;;;;;15.61;63.98;96182.56;2061781;28;20570;-65
2023/03/30 12:46:24;;;;;;;13.52;2.28;;;;;;;16.04;62.52;96176.81;2055172;28;20841;-65
2023/03/30 12:47:39;;;;;;;8.45;2.30;;;;;;;15.35;64.12;96162.44;2065727;28;20707;-65
2023/03/30 12:48:49;;;;;;;9.40;1.85;;;;;;;15.01;62.98;96162.19;2063986;28;20231;-65
2023/03/30 12:50:21;;;;;;;8.63;2.00;;;;;;;14.92;64.31;96168.09;2060714;28;20206;-64
2023/03/30 12:51:41;;;;;;;5.75;2.38;;;;;;;15.38;62.57;96164.00;2061393;28;20218;-64
2023/03/30 12:53:05;;;;;;;9.25;1.90;;;;;;;14.98;63.02;96151.91;2060135;28;20199;-67
2023/03/30 12:54:36;;;;;;;7.30;1.50;;;;;;;15.42;62.87;96152.31;2071298;28;20257;-66
2023/03/30 12:56:02;;;;;;;5.53;2.22;;;;;;;15.30;62.67;96140.88;2068211;28;20219;-65
2023/03/30 12:57:23;;;;;;;11.50;3.00;;;;;;;15.63;62.74;96144.66;2060287;28;20207;-61
2023/03/30 12:58:43;;;;;;;6.45;2.67;;;;;;;15.74;63.70;96149.13;2062319;28;20234;-62
2023/03/30 13:00:22;;;;;;;7.72;1.65;;;;;;;15.59;63.46;96158.13;2068476;28;20202;-60
2023/03/30 13:01:44;;;;;;;4.75;1.92;;;;;;;15.14;65.30;96150.81;2061062;28;20229;-60
2023/03/30 13:02:56;;;;;;;10.35;2.20;;;;;;;14.72;66.76;96158.97;2061280;28;20198;-60
2023/03/30 13:04:12;;;;;;;6.00;1.90;;;;;;;14.92;66.12;96148.84;2062583;28;20242;-60
2023/03/30 13:05:22;;;;;;;5.35;2.25;;;;;;;14.70;65.65;96163.47;2058614;28;20237;-60
2023/03/30 13:06:26;;;;;;;10.95;2.35;;;;;;;14.81;65.27;96165.38;2070184;28;20237;-60
2023/03/30 13:07:35;;;;;;;7.15;2.13;;;;;;;15.24;64.95;96172.88;2069586;28;20268;-60
2023/03/30 13:08:40;;;;;;;5.70;1.98;;;;;;;15.50;64.75;96175.44;2060728;28;20313;-60
2023/03/30 13:10:03;;;;;;;7.03;1.80;;;;;;;15.16;62.95;96164.69;2062152;28;20198;-60
2023/03/30 13:11:18;;;;;;;7.05;1.85;;;;;;;15.50;62.11;96170.16;2061319;28;20223;-60
2023/03/30 13:12:26;;;;;;;3.55;1.75;;;;;;;15.60;61.95;96179.06;2062652;28;20199;-60
2023/03/30 13:13:50;;;;;;;4.95;1.55;;;;;;;15.47;61.13;96178.28;2059158;28;20214;-60
2023/03/30 13:15:02;;;;;;;7.10;1.30;;;;;;;15.48;60.22;96175.56;2061065;28;20213;-60
2023/03/30 13:16:04;;;;;;;8.25;1.80;;;;;;;15.64;60.32;96200.75;2060176;28;20230;-64
2023/03/30 13:17:10;;;;;;;7.75;2.60;;;;;;;15.43;60.99;96188.19;2058801;28;20204;-60
2023/03/30 13:18:11;;;;;;;3.75;1.50;;;;;;;16.00;61.07;96180.63;2059275;28;20199;-60
2023/03/30 13:19:25;;;;;;;6.30;1.90;;;;;;;16.44;59.06;96178.25;2059534;28;20581;-60
2023/03/30 13:20:45;;;;;;;7.22;2.03;;;;;;;16.29;58.18;96170.56;2063106;28;20285;-60
2023/03/30 13:21:56;;;;;;;5.72;1.67;;;;;;;16.53;58.21;96174.94;2066664;28;20899;-60
2023/03/30 13:23:03;;;;;;;4.47;1.25;;;;;;;16.10;57.41;96170.25;2067455;28;20221;-61
2023/03/30 13:24:24;;;;;;;6.07;1.50;;;;;;;16.37;58.22;96172.63;2067051;28;20276;-60
2023/03/30 13:25:38;;;;;;;5.68;1.70;;;;;;;16.45;57.48;96170.22;2060744;28;20210;-60
2023/03/30 13:26:43;;;;;;;3.70;1.33;;;;;;;16.51;57.62;96168.09;2061427;28;20534;-60
2023/03/30 13:27:45;;;;;;;5.95;1.52;;;;;;;16.40;57.29;96180.28;2060742;28;20202;-60
2023/03/30 13:28:53;;;;;;;5.57;1.60;;;;;;;16.32;58.63;96182.66;2059581;28;20237;-61
2023/03/30 13:29:57;;;;;;;6.53;1.70;;;;;;;16.00;58.09;96197.25;2063285;28;20199;-61
2023/03/30 13:31:21;;;;;;;6.18;1.88;;;;;;;15.61;59.00;96187.84;2065227;28;20230;-60
2023/03/30 13:32:38;;;;;;;4.95;1.80;;;;;;;15.49;60.18;96192.16;2066876;28;20198;-60
2023/03/30 13:33:44;;;;;;;6.85;1.92;;;;;;;15.58;61.08;96193.28;2066849;28;20247;-60
2023/03/30 13:35:20;;;;;;;6.43;2.30;;;;;;;15.98;59.28;96203.59;2058558;28;20211;-60
2023/03/30 13:36:25;;;;;;;4.18;1.70;;;;;;;15.86;60.07;96199.22;2060123;28;20724;-60
2023/03/30 13:37:45;;;;;;;9.20;2.50;;;;;;;15.19;62.17;96190.78;2060953;28;20681;-60
2023/03/30 13:39:00;;;;;;;4.00;1.38;;;;;;;14.83;63.11;96187.13;2061581;28;20198;-60
2023/03/30 13:40:17;;;;;;;6.95;2.35;;;;;;;14.66;64.35;96183.88;2061137;28;20210;-59
2023/03/30 13:41:46;;;;;;;7.18;2.22;;;;;;;14.63;64.48;96185.84;2059429;28;20234;-59
2023/03/30 13:43:18;;;;;;;5.53;1.90;;;;;;;14.93;63.36;96180.31;2059933;28;20211;-59
2023/03/30 13:44:46;;;;;;;4.60;2.28;;;;;;;14.92;63.56;96178.63;2062665;28;20637;-59
2023/03/30 13:46:03;;;;;;;6.10;2.05;;;;;;;15.07;63.34;96174.09;2070278;28;20225;-59
2023/03/30 13:47:35;;;;;;;11.45;2.30;;;;;;;15.06;63.97;96174.16;2064236;28;20203;-59
2023/03/30 13:48:40;;;;;;;4.15;1.98;;;;;;;14.84;63.53;96170.41;2066904;28;20203;-59
2023/03/30 13:50:06;;;;;;;5.70;2.20;;;;;;;15.19;63.41;96178.47;2063173;28;20199;-59
2023/03/30 13:51:14;;;;;;;14.50;2.25;;;;;;;15.24;64.00;96179.94;2061623;28;20320;-59
2023/03/30 13:52:24;;;;;;;7.28;2.10;;;;;;;15.54;63.77;96173.44;2059332;28;20317;-59
2023/03/30 13:53:31;;;;;;;7.60;1.95;;;;;;;16.10;61.81;96180.78;2059482;28;20302;-59
2023/03/30 13:54:33;;;;;;;7.03;2.10;;;;;;;15.97;58.80;96173.81;2060900;28;20194;-59
2023/03/30 13:55:38;;;;;;;9.35;1.80;;;;;;;15.88;58.80;96178.91;2060334;28;20310;-59
2023/03/30 13:56:45;;;;;;;4.35;1.70;;;;;;;15.35;58.66;96164.25;2062557;28;20201;-59
2023/03/30 13:57:47;;;;;;;4.72;1.70;;;;;;;15.37;59.93;96164.13;2068209;28;20287;-59
2023/03/30 13:59:05;;;;;;;8.50;1.73;;;;;;;15.22;59.21;96159.00;2071159;28;20670;-62
2023/03/30 14:00:32;;;;;;;4.00;1.52;;;;;;;15.50;59.05;96168.41;2063250;28;20190;-62
2023/03/30 14:01:34;;;;;;;4.38;1.70;;;;;;;15.94;58.49;96173.19;2068786;28;20225;-61
2023/03/30 14:02:39;;;;;;;6.88;1.50;;;;;;;16.15;57.42;96162.84;2069360;28;20253;-62
2023/03/30 14:04:01;;;;;;;6.95;1.92;;;;;;;16.00;57.56;96167.47;2063152;28;20199;-62
2023/03/30 14:05:19;;;;;;;5.30;1.85;;;;;;;16.05;56.87;96169.75;2060694;28;20203;-62
2023/03/30 14:06:25;;;;;;;4.32;1.60;;;;;;;15.67;57.67;96161.91;2059806;28;20915;-61
2023/03/30 14:07:29;;;;;;;7.22;1.80;;;;;;;15.51;58.99;96166.59;2061493;28;20211;-63
2023/03/30 14:08:34;;;;;;;5.10;2.00;;;;;;;15.64;59.75;96161.28;2067275;28;20201;-61
2023/03/30 14:09:36;;;;;;;7.18;2.00;;;;;;;15.89;58.79;96170.06;2065441;28;20289;-61
2023/03/30 14:10:38;;;;;;;6.70;1.30;;;;;;;15.39;58.23;96162.19;2059539;28;20276;-62
2023/03/30 14:11:50;;;;;;;6.47;2.15;;;;;;;15.23;58.31;96165.94;2061567;28;20717;-62
2023/03/30 14:12:56;;;;;;;6.18;1.60;;;;;;;15.01;59.50;96174.50;2063419;28;20579;-62
2023/03/30 14:13:57;;;;;;;7.18;1.85;;;;;;;14.76;59.43;96194.59;2062848;28;20222;-62
2023/03/30 14:15:00;;;;;;;8.75;2.00;;;;;;;14.54;59.14;96193.41;2066286;28;20205;-62
2023/03/30 14:16:03;;;;;;;4.18;1.55;;;;;;;14.52;60.02;96176.94;2065221;28;20285;-61
2023/03/30 14:17:21;;;;;;;5.82;1.20;;;;;;;14.38;60.15;96182.25;2061214;28;20194;-62
2023/03/30 14:18:24;;;;;;;7.43;1.90;;;;;;;14.32;60.69;96193.16;2059775;28;20288;-62
2023/03/30 14:19:30;;;;;;;9.80;2.08;;;;;;;14.36;61.42;96173.66;2058437;28;20202;-62
2023/03/30 14:20:47;;;;;;;5.70;1.63;;;;;;;14.33;61.70;96194.84;2060121;28;20197;-62
2023/03/30 14:21:52;;;;;;;6.78;1.63;;;;;;;14.26;62.29;96204.94;2062560;28;20214;-61
2023/03/30 14:22:55;;;;;;;4.10;1.48;;;;;;;14.15;61.42;96184.63;2061599;28;20207;-61
2023/03/30 14:24:01;;;;;;;3.42;1.45;;;;;;;14.21;62.00;96184.22;2060797;28;20224;-62
2023/03/30 14:25:05;;;;;;;5.28;1.73;;;;;;;14.21;61.62;96188.66;2063459;28;20210;-62
2023/03/30 14:26:27;;;;;;;4.25;1.60;;;;;;;14.14;61.53;96182.09;2062091;28;20229;-62
2023/03/30 14:27:35;;;;;;;8.95;1.75;;;;;;;14.04;60.36;96176.63;2063563;28;20198;-62
2023/03/30 14:28:37;;;;;;;8.18;2.00;;;;;;;13.95;60.75;96170.19;2065541;28;20206;-62
2023/03/30 14:29:47;;;;;;;7.03;2.05;;;;;;;14.05;61.26;96194.06;2062105;28;20197;-61
2023/03/30 14:30:54;;;;;;;6.18;1.70;;;;;;;13.91;59.96;96194.97;2061356;28;20228;-60
2023/03/30 14:31:58;;;;;;;6.45;1.13;;;;;;;13.74;59.25;96203.06;2059707;28;20700;-62
2023/03/30 14:33:12;;;;;;;5.40;1.42;;;;;;;13.71;59.90;96198.88;2061723;28;20233;-62
2023/03/30 14:34:24;;;;;;;3.78;1.40;;;;;;;13.73;60.23;96197.00;2060847;28;20249;-62
2023/03/30 14:35:27;;;;;;;5.20;1.88;;;;;;;13.69;60.34;96208.63;2061295;28;20389;-62
2023/03/30 14:36:29;;;;;;;5.30;1.60;;;;;;;13.58;60.24;96201.44;2060700;28;20205;-62
2023/03/30 14:37:30;;;;;;;5.07;2.25;;;;;;;13.61;61.21;96210.91;2062949;28;20546;-62
2023/03/30 14:38:37;;;;;;;4.00;1.48;;;;;;;13.48;62.78;96208.22;2061044;28;20285;-62
2023/03/30 14:39:46;;;;;;;5.57;1.65;;;;;;;13.25;63.58;96222.75;2060895;28;20241;-63
2023/03/30 14:40:49;;;;;;;4.38;1.40;;;;;;;13.02;65.19;96210.09;2063791;28;20233;-62
2023/03/30 14:41:51;;;;;;;8.27;1.77;;;;;;;12.92;66.08;96211.59;2063989;28;20202;-61
2023/03/30 14:42:53;;;;;;;5.60;1.30;;;;;;;12.68;69.18;96214.78;2061969;28;20211;-62
2023/03/30 14:44:06;;;;;;;1.95;1.02;;;;;;;12.49;71.36;96196.69;2059486;28;20198;-62
2023/03/30 14:45:09;;;;;;;5.97;1.30;;;;;;;12.70;69.42;96185.88;2058270;28;20198;-62
2023/03/30 14:46:11;;;;;;;6.47;2.22;;;;;;;13.56;68.12;96190.22;2063309;28;20221;-62
2023/03/30 14:47:15;;;;;;;6.75;1.60;;;;;;;13.96;65.90;96189.41;2065477;28;20603;-62
2023/03/30 14:48:31;;;;;;;5.90;1.30;;;;;;;14.25;64.70;96176.97;2066407;28;20213;-63
2023/03/30 14:49:33;;;;;;;4.75;1.67;;;;;;;14.74;63.77;96177.25;2062674;28;20191;-63
2023/03/30 14:50:35;;;;;;;5.93;1.38;;;;;;;15.12;63.46;96186.88;2060737;28;20225;-62
2023/03/30 14:51:41;;;;;;;4.07;1.00;;;;;;;15.29;62.56;96185.72;2061057;28;20245;-62
2023/03/30 14:52:45;;;;;;;4.00;1.45;;;;;;;15.18;61.76;96179.44;2062127;28;20826;-62
2023/03/30 14:53:47;;;;;;;3.78;1.08;;;;;;;15.35;61.93;96172.13;2062930;28;20685;-63
2023/03/30 14:54:53;;;;;;;6.65;2.90;;;;;;;15.41;60.39;96186.63;2063651;28;20565;-61
2023/03/30 14:56:07;;;;;;;7.13;1.83;;;;;;;15.16;60.97;96180.47;2063016;28;20221;-62
2023/03/30 14:57:10;;;;;;;5.70;2.08;;;;;;;15.42;61.24;96173.34;2059558;28;20203;-64
2023/03/30 14:58:14;;;;;;;7.55;2.00;;;;;;;15.61;60.69;96182.56;2058652;28;20831;-63
2023/03/30 14:59:19;;;;;;;4.50;1.45;;;;;;;15.68;61.08;96178.56;2060740;28;20214;-63
2023/03/30 15:00:23;;;;;;;5.40;1.80;;;;;;;15.67;61.12;96175.06;2060675;28;20199;-64
2023/03/30 15:01:31;;;;;;;7.63;1.63;;;;;;;15.65;61.63;96184.84;2064045;28;20206;-63
2023/03/30 15:02:36;;;;;;;8.48;2.50;;;;;;;15.45;61.02;96172.28;2061371;28;20247;-63
2023/03/30 15:03:38;;;;;;;4.72;1.30;;;;;;;15.18;61.73;96178.56;2060728;28;20199;-63
2023/03/30 15:04:40;;;;;;;4.25;1.40;;;;;;;14.71;62.64;96159.91;2063380;28;20206;-64
2023/03/30 15:05:44;;;;;;;5.70;1.63;;;;;;;14.25;63.64;96171.72;2064535;28;20228;-63
2023/03/30 15:06:47;;;;;;;9.02;1.65;;;;;;;13.85;64.74;96180.47;2061896;28;20199;-63
2023/03/30 15:07:50;;;;;;;9.82;1.70;;;;;;;13.70;65.83;96184.09;2061544;28;20713;-63
2023/03/30 15:08:51;;;;;;;5.30;1.50;;;;;;;13.49;66.50;96176.63;2062682;28;20649;-63
2023/03/30 15:09:56;;;;;;;8.55;1.90;;;;;;;13.37;66.96;96188.75;2062439;28;20723;-63
2023/03/30 15:11:03;;;;;;;6.88;1.63;;;;;;;13.36;67.70;96191.44;2064390;28;20718;-63
2023/03/30 15:12:05;;;;;;;8.98;1.60;;;;;;;13.32;67.87;96197.81;2059709;28;20202;-63
2023/03/30 15:13:07;;;;;;;5.57;2.03;;;;;;;13.19;69.93;96195.97;2061859;28;20210;-63
2023/03/30 15:14:16;;;;;;;3.50;1.45;;;;;;;13.03;70.30;96197.88;2071983;28;20209;-62
2023/03/30 15:15:23;;;;;;;12.05;2.35;;;;;;;13.03;73.40;96197.88;2067093;28;20197;-62
2023/03/30 15:16:27;;;;;;;10.27;2.30;;;;;;;12.70;75.92;96205.06;2062077;28;20194;-62
2023/03/30 15:17:30;;;;;;;9.88;2.45;;;;;;;12.41;77.82;96194.53;2061963;28;20238;-62
2023/03/30 15:18:35;;;;;;;7.38;1.60;;;;;;;12.14;76.31;96196.16;2063401;28;20198;-64
2023/03/30 15:19:37;;;;;;;5.28;1.80;;;;;;;12.04;76.16;96201.09;2061542;28;20202;-62
2023/03/30 15:20:38;;;;;;;4.40;1.50;;;;;;;11.97;74.88;96208.44;2063008;28;20252;-62
2023/03/30 15:21:40;;;;;;;5.45;1.67;;;;;;;11.92;75.63;96206.06;2060788;28;20210;-63
2023/03/30 15:22:50;;;;;;;6.13;1.75;;;;;;;11.91;76.66;96214.84;2059292;28;20194;-62
2023/03/30 15:23:52;;;;;;;7.38;1.50;;;;;;;12.10;74.56;96203.34;2060281;28;20206;-62
2023/03/30 15:24:56;;;;;;;9.68;1.75;;;;;;;12.29;74.56;96207.50;2060919;28;20199;-62
2023/03/30 15:26:00;;;;;;;6.68;1.70;;;;;;;12.46;73.68;96209.16;2060406;28;20240;-62
2023/03/30 15:27:05;;;;;;;3.65;1.60;;;;;;;12.29;73.44;96204.88;2058293;28;20199;-62
2023/03/30 15:28:12;;;;;;;4.47;1.10;;;;;;;11.94;76.66;96208.59;2059272;28;20199;-62
2023/03/30 15:29:17;;;;;;;5.05;1.33;;;;;;;11.55;78.97;96221.22;2061943;28;20213;-60
2023/03/30 15:30:32;;;;;;;15.73;4.85;;;;;;;11.14;80.84;96219.06;2065149;28;20712;-63
2023/03/30 15:31:34;;;;;;;3.60;1.25;;;;;;;11.05;80.89;96223.03;2062346;28;20233;-62
2023/03/30 15:32:40;;;;;;;14.40;5.22;;;;;;;11.08;82.67;96217.66;2061519;28;20285;-61
2023/03/30 15:33:45;;;;;;;4.28;1.63;;;;;;;11.69;81.83;96217.81;2061865;28;20230;-61
2023/03/30 15:35:20;;;;;;;4.80;2.03;;;;;;;12.30;78.45;96225.72;2063723;28;20213;-61
2023/03/30 15:36:39;;;;;;;7.28;1.90;;;;;;;12.76;77.88;96224.81;2060085;28;20226;-62
2023/03/30 15:37:57;;;;;;;4.50;1.38;;;;;;;13.13;75.55;96217.31;2059021;28;20198;-62
2023/03/30 15:38:59;;;;;;;8.57;1.73;;;;;;;13.35;75.70;96223.84;2063566;28;20225;-62
2023/03/30 15:40:03;;;;;;;9.00;1.65;;;;;;;13.19;74.30;96226.56;2065111;28;20558;-62
2023/03/30 15:41:13;;;;;;;7.05;1.75;;;;;;;13.23;74.19;96222.84;2065170;28;20233;-62
2023/03/30 15:42:23;;;;;;;4.47;1.67;;;;;;;13.45;73.44;96227.63;2074379;28;20205;-62
2023/03/30 15:43:32;;;;;;;10.02;2.33;;;;;;;13.58;73.00;96216.34;2069767;28;20202;-62
2023/03/30 15:44:35;;;;;;;6.97;1.73;;;;;;;13.67;72.83;96218.38;2061735;28;20197;-63
2023/03/30 15:45:37;;;;;;;5.63;1.75;;;;;;;13.69;72.56;96224.38;2061579;28;20232;-63
2023/03/30 15:46:39;;;;;;;6.20;1.73;;;;;;;13.91;72.92;96225.63;2063762;28;20195;-63
2023/03/30 15:47:42;;;;;;;9.63;3.05;;;;;;;14.26;73.08;96217.22;2061362;28;20194;-64
2023/03/30 15:48:46;;;;;;;8.13;1.40;;;;;;;13.92;70.35;96211.56;2060757;28;20195;-63
2023/03/30 15:49:50;;;;;;;9.57;1.88;;;;;;;13.98;71.43;96217.25;2059887;28;20268;-64
2023/03/30 15:50:55;;;;;;;6.55;1.65;;;;;;;13.95;70.00;96209.56;2063137;28;20233;-64
2023/03/30 15:52:00;;;;;;;5.78;2.05;;;;;;;14.20;71.01;96214.03;2062873;28;20284;-63
2023/03/30 15:53:02;;;;;;;4.90;1.80;;;;;;;14.39;69.41;96193.63;2062066;28;20234;-64
2023/03/30 15:54:11;;;;;;;9.88;1.60;;;;;;;14.45;69.42;96204.53;2062470;28;20199;-63
2023/03/30 15:55:21;;;;;;;6.78;1.77;;;;;;;14.29;69.28;96204.72;2064705;28;20201;-63
2023/03/30 15:56:45;;;;;;;7.43;1.92;;;;;;;14.17;69.22;96203.75;2065910;28;20213;-63
2023/03/30 15:57:50;;;;;;;3.40;1.50;;;;;;;14.18;69.72;96201.97;2063545;28;20202;-63
2023/03/30 15:58:51;;;;;;;6.95;1.67;;;;;;;14.08;69.43;96193.88;2062554;28;20373;-63
2023/03/30 16:00:01;;;;;;;9.70;2.60;;;;;;;14.32;68.99;96201.91;2061825;28;20880;-64
2023/03/30 16:01:03;;;;;;;4.90;1.70;;;;;;;14.53;68.10;96211.91;2060800;28;20346;-63
2023/03/30 16:02:34;;;;;;;7.03;1.50;;;;;;;14.65;68.16;96218.13;2060335;28;20686;-64
2023/03/30 16:03:39;;;;;;;6.15;1.17;;;;;;;14.28;66.93;96212.72;2063081;28;20225;-63
2023/03/30 16:04:41;;;;;;;5.70;1.38;;;;;;;14.18;67.95;96207.22;2062066;28;20199;-63
2023/03/30 16:05:44;;;;;;;8.48;1.50;;;;;;;14.26;67.54;96209.31;2063731;28;20231;-63
2023/03/30 16:06:45;;;;;;;2.65;1.20;;;;;;;14.27;66.80;96216.28;2064009;28;20218;-63
2023/03/30 16:07:48;;;;;;;3.22;1.08;;;;;;;14.06;66.45;96197.53;2064860;28;20202;-63
2023/03/30 16:08:49;;;;;;;4.63;1.33;;;;;;;14.37;66.35;96218.19;2066499;28;20917;-63
2023/03/30 16:09:51;;;;;;;3.75;1.33;;;;;;;14.08;68.39;96217.50;2065501;28;20203;-63
2023/03/30 16:10:53;;;;;;;6.75;1.42;;;;;;;13.54;68.19;96206.03;2062074;28;20225;-63
2023/03/30 16:11:55;;;;;;;3.40;1.33;;;;;;;13.36;69.34;96223.75;2065199;28;20260;-63
2023/03/30 16:12:58;;;;;;;6.68;1.20;;;;;;;13.14;70.02;96208.53;2065725;28;20641;-64
2023/03/30 16:14:00;;;;;;;5.93;1.27;;;;;;;12.95;69.46;96208.81;2060289;28;20670;-63
2023/03/30 16:15:01;;;;;;;4.72;0.93;;;;;;;12.80;71.43;96215.81;2061847;28;20223;-63
2023/03/30 16:16:03;;;;;;;5.47;1.17;;;;;;;12.80;71.26;96207.09;2061834;28;20681;-63
2023/03/30 16:17:05;;;;;;;6.88;1.40;;;;;;;13.00;71.04;96212.00;2060164;28;20554;-63
2023/03/30 16:18:06;;;;;;;6.63;1.40;;;;;;;13.15;69.66;96204.13;2063942;28;20229;-63
2023/03/30 16:19:12;;;;;;;3.90;1.00;;;;;;;13.26;68.34;96206.09;2062159;28;20205;-63
2023/03/30 16:20:25;;;;;;;3.90;1.10;;;;;;;13.13;68.75;96204.22;2060396;28;20210;-63
2023/03/30 16:21:26;;;;;;;6.10;1.00;;;;;;;13.08;69.40;96208.91;2063092;28;20286;-63
2023/03/30 16:22:28;;;;;;;8.60;2.05;;;;;;;13.31;70.26;96202.22;2064168;28;20191;-63
2023/03/30 16:23:30;;;;;;;9.40;2.05;;;;;;;13.28;69.43;96215.53;2063833;28;20198;-63
2023/03/30 16:24:31;;;;;;;5.28;1.15;;;;;;;13.20;69.81;96210.78;2066322;28;20198;-64
2023/03/30 16:25:32;;;;;;;5.18;1.42;;;;;;;12.84;70.28;96212.09;2063967;28;20201;-63
2023/03/30 16:26:45;;;;;;;5.03;1.30;;;;;;;12.67;71.35;96213.09;2061430;28;20562;-63